sensor_id;sensor_type;location;lat;lon;timestamp;temperature;humidity
16879;DHT22;8556;52.218;9.884;2023-06-22T00:02:18;18.40;99.90
16879;DHT22;8556;52.218;9.884;2023-06-22T00:04:45;18.60;99.90
16879;DHT22;8556;52.218;9.884;2023-06-22T00:07:12;18.30;99.90
16879;DHT22;8556;52.218;9.884;2023-06-22T00:09:39;17.80;99.90
16879;DHT22;8556;52.218;9.884;2023-06-22T00:12:06;18.00;99.90
16879;DHT22;8556;52.218;9.884;2023-06-22T00:14:33;18.20;99.90
16879;DHT22;8556;52.218;9.884;2023-06-22T00:17:00;18.30;99.90
16879;DHT22;8556;52.218;9.884;2023-06-22T00:19:28;18.30;99.90
16879;DHT22;8556;52.218;9.884;2023-06-22T00:21:55;18.30;99.90
16879;DHT22;8556;52.218;9.884;2023-06-22T00:24:25;18.20;99.90
16879;DHT22;8556;52.218;9.884;2023-06-22T00:26:52;18.20;99.90
16879;DHT22;8556;52.218;9.884;2023-06-22T00:29:19;18.30;99.90
16879;DHT22;8556;52.218;9.884;2023-06-22T00:31:46;18.40;99.90
16879;DHT22;8556;52.218;9.884;2023-06-22T00:34:13;18.40;99.90
16879;DHT22;8556;52.218;9.884;2023-06-22T00:36:41;18.40;99.90
16879;DHT22;8556;52.218;9.884;2023-06-22T00:39:07;18.10;99.90
16879;DHT22;8556;52.218;9.884;2023-06-22T00:41:35;17.70;99.90
16879;DHT22;8556;52.218;9.884;2023-06-22T00:44:02;17.80;99.90
16879;DHT22;8556;52.218;9.884;2023-06-22T00:46:29;17.60;99.90
16879;DHT22;8556;52.218;9.884;2023-06-22T00:48:56;17.80;99.90
16879;DHT22;8556;52.218;9.884;2023-06-22T00:51:23;17.80;99.90
16879;DHT22;8556;52.218;9.884;2023-06-22T00:53:51;18.00;99.90
16879;DHT22;8556;52.218;9.884;2023-06-22T00:56:18;18.10;99.90
16879;DHT22;8556;52.218;9.884;2023-06-22T00:58:50;18.10;99.90
16879;DHT22;8556;52.218;9.884;2023-06-22T01:01:18;18.00;99.90
16879;DHT22;8556;52.218;9.884;2023-06-22T01:03:49;18.00;99.90
16879;DHT22;8556;52.218;9.884;2023-06-22T01:06:20;18.00;99.90
16879;DHT22;8556;52.218;9.884;2023-06-22T01:09:02;18.00;99.90
16879;DHT22;8556;52.218;9.884;2023-06-22T01:11:36;18.00;99.90
16879;DHT22;8556;52.218;9.884;2023-06-22T01:14:07;18.00;99.90
16879;DHT22;8556;52.218;9.884;2023-06-22T01:16:40;18.00;99.90
16879;DHT22;8556;52.218;9.884;2023-06-22T01:19:20;18.00;99.90
16879;DHT22;8556;52.218;9.884;2023-06-22T01:21:53;17.50;99.90
16879;DHT22;8556;52.218;9.884;2023-06-22T01:24:28;17.10;99.90
16879;DHT22;8556;52.218;9.884;2023-06-22T01:27:06;16.80;99.90
16879;DHT22;8556;52.218;9.884;2023-06-22T01:29:38;16.30;99.90
16879;DHT22;8556;52.218;9.884;2023-06-22T01:32:06;16.40;99.90
16879;DHT22;8556;52.218;9.884;2023-06-22T01:34:33;16.70;99.90
16879;DHT22;8556;52.218;9.884;2023-06-22T01:37:02;17.10;99.90
16879;DHT22;8556;52.218;9.884;2023-06-22T01:39:29;17.20;99.90
16879;DHT22;8556;52.218;9.884;2023-06-22T01:41:57;17.20;99.90
16879;DHT22;8556;52.218;9.884;2023-06-22T01:44:25;17.20;99.90
16879;DHT22;8556;52.218;9.884;2023-06-22T01:46:54;17.60;99.90
16879;DHT22;8556;52.218;9.884;2023-06-22T01:49:22;17.70;99.90
16879;DHT22;8556;52.218;9.884;2023-06-22T01:51:49;17.60;99.90
16879;DHT22;8556;52.218;9.884;2023-06-22T01:54:15;17.70;99.90
16879;DHT22;8556;52.218;9.884;2023-06-22T01:56:42;17.30;99.90
16879;DHT22;8556;52.218;9.884;2023-06-22T01:59:13;17.40;99.90
16879;DHT22;8556;52.218;9.884;2023-06-22T02:01:43;17.00;99.90
16879;DHT22;8556;52.218;9.884;2023-06-22T02:04:19;16.60;99.90
16879;DHT22;8556;52.218;9.884;2023-06-22T02:06:47;16.70;99.90
16879;DHT22;8556;52.218;9.884;2023-06-22T02:09:19;16.70;99.90
16879;DHT22;8556;52.218;9.884;2023-06-22T02:11:48;16.80;99.90
16879;DHT22;8556;52.218;9.884;2023-06-22T02:14:18;17.00;99.90
16879;DHT22;8556;52.218;9.884;2023-06-22T02:16:45;17.10;99.90
16879;DHT22;8556;52.218;9.884;2023-06-22T02:19:14;17.30;99.90
16879;DHT22;8556;52.218;9.884;2023-06-22T02:21:41;17.10;99.90
16879;DHT22;8556;52.218;9.884;2023-06-22T02:24:08;17.10;99.90
16879;DHT22;8556;52.218;9.884;2023-06-22T02:26:35;17.10;99.90
16879;DHT22;8556;52.218;9.884;2023-06-22T02:29:03;17.40;99.90
16879;DHT22;8556;52.218;9.884;2023-06-22T02:31:30;17.40;99.90
16879;DHT22;8556;52.218;9.884;2023-06-22T02:33:57;17.20;99.90
16879;DHT22;8556;52.218;9.884;2023-06-22T02:36:26;17.10;99.90
16879;DHT22;8556;52.218;9.884;2023-06-22T02:38:56;17.10;99.90
16879;DHT22;8556;52.218;9.884;2023-06-22T02:41:26;17.10;99.90
16879;DHT22;8556;52.218;9.884;2023-06-22T02:43:53;17.00;99.90
16879;DHT22;8556;52.218;9.884;2023-06-22T02:46:20;17.10;99.90
16879;DHT22;8556;52.218;9.884;2023-06-22T02:48:46;17.10;99.90
16879;DHT22;8556;52.218;9.884;2023-06-22T02:51:13;17.00;99.90
16879;DHT22;8556;52.218;9.884;2023-06-22T02:53:42;17.00;99.90
16879;DHT22;8556;52.218;9.884;2023-06-22T02:56:10;17.30;99.90
16879;DHT22;8556;52.218;9.884;2023-06-22T02:58:38;17.40;99.90
16879;DHT22;8556;52.218;9.884;2023-06-22T03:01:05;17.30;99.90
16879;DHT22;8556;52.218;9.884;2023-06-22T03:03:32;17.30;99.90
16879;DHT22;8556;52.218;9.884;2023-06-22T03:05:58;17.30;99.90
16879;DHT22;8556;52.218;9.884;2023-06-22T03:08:27;16.80;99.90
16879;DHT22;8556;52.218;9.884;2023-06-22T03:10:55;17.00;99.90
16879;DHT22;8556;52.218;9.884;2023-06-22T03:13:22;17.20;99.90
16879;DHT22;8556;52.218;9.884;2023-06-22T03:15:49;17.20;99.90
16879;DHT22;8556;52.218;9.884;2023-06-22T03:18:16;17.20;99.90
16879;DHT22;8556;52.218;9.884;2023-06-22T03:20:43;16.70;99.90
16879;DHT22;8556;52.218;9.884;2023-06-22T03:23:10;16.70;99.90
16879;DHT22;8556;52.218;9.884;2023-06-22T03:25:36;16.70;99.90
16879;DHT22;8556;52.218;9.884;2023-06-22T03:28:05;16.60;99.90
16879;DHT22;8556;52.218;9.884;2023-06-22T03:30:31;16.80;99.90
16879;DHT22;8556;52.218;9.884;2023-06-22T03:32:58;16.70;99.90
16879;DHT22;8556;52.218;9.884;2023-06-22T03:35:25;16.80;99.90
16879;DHT22;8556;52.218;9.884;2023-06-22T03:37:52;17.00;99.90
16879;DHT22;8556;52.218;9.884;2023-06-22T03:40:19;17.00;99.90
16879;DHT22;8556;52.218;9.884;2023-06-22T03:42:46;17.10;99.90
16879;DHT22;8556;52.218;9.884;2023-06-22T03:45:14;17.50;99.90
16879;DHT22;8556;52.218;9.884;2023-06-22T03:47:41;17.60;99.90
16879;DHT22;8556;52.218;9.884;2023-06-22T03:50:08;17.50;99.90
16879;DHT22;8556;52.218;9.884;2023-06-22T03:52:35;17.80;99.90
16879;DHT22;8556;52.218;9.884;2023-06-22T03:55:02;17.90;99.90
16879;DHT22;8556;52.218;9.884;2023-06-22T03:57:29;17.90;99.90
16879;DHT22;8556;52.218;9.884;2023-06-22T03:59:57;18.00;99.90
16879;DHT22;8556;52.218;9.884;2023-06-22T04:02:25;17.90;99.90
16879;DHT22;8556;52.218;9.884;2023-06-22T04:04:52;18.10;99.90
16879;DHT22;8556;52.218;9.884;2023-06-22T04:07:19;18.10;99.90
16879;DHT22;8556;52.218;9.884;2023-06-22T04:09:45;18.30;99.90
16879;DHT22;8556;52.218;9.884;2023-06-22T04:12:12;18.10;99.90
16879;DHT22;8556;52.218;9.884;2023-06-22T04:14:39;18.20;99.90
16879;DHT22;8556;52.218;9.884;2023-06-22T04:17:06;18.00;99.90
16879;DHT22;8556;52.218;9.884;2023-06-22T04:19:34;17.80;99.90
16879;DHT22;8556;52.218;9.884;2023-06-22T04:22:01;17.70;99.90
16879;DHT22;8556;52.218;9.884;2023-06-22T04:24:28;17.90;99.90
16879;DHT22;8556;52.218;9.884;2023-06-22T04:26:55;18.00;99.90
16879;DHT22;8556;52.218;9.884;2023-06-22T04:29:22;18.00;99.90
16879;DHT22;8556;52.218;9.884;2023-06-22T04:31:54;18.20;99.90
16879;DHT22;8556;52.218;9.884;2023-06-22T04:34:23;18.30;99.90
16879;DHT22;8556;52.218;9.884;2023-06-22T04:36:53;18.30;99.90
16879;DHT22;8556;52.218;9.884;2023-06-22T04:39:19;18.40;99.90
16879;DHT22;8556;52.218;9.884;2023-06-22T04:41:46;18.40;99.90
16879;DHT22;8556;52.218;9.884;2023-06-22T04:44:14;18.40;99.90
16879;DHT22;8556;52.218;9.884;2023-06-22T04:46:50;18.30;99.90
16879;DHT22;8556;52.218;9.884;2023-06-22T04:49:20;18.10;99.90
16879;DHT22;8556;52.218;9.884;2023-06-22T04:51:48;18.10;99.90
16879;DHT22;8556;52.218;9.884;2023-06-22T04:54:18;18.30;99.90
16879;DHT22;8556;52.218;9.884;2023-06-22T04:56:45;18.30;99.90
16879;DHT22;8556;52.218;9.884;2023-06-22T04:59:12;18.40;99.90
16879;DHT22;8556;52.218;9.884;2023-06-22T05:01:39;18.50;99.90
16879;DHT22;8556;52.218;9.884;2023-06-22T05:04:06;18.60;99.90
16879;DHT22;8556;52.218;9.884;2023-06-22T05:06:33;18.70;99.90
16879;DHT22;8556;52.218;9.884;2023-06-22T05:09:00;18.70;99.90
16879;DHT22;8556;52.218;9.884;2023-06-22T05:11:28;18.80;99.90
16879;DHT22;8556;52.218;9.884;2023-06-22T05:13:55;18.80;99.90
16879;DHT22;8556;52.218;9.884;2023-06-22T05:16:23;19.10;99.90
16879;DHT22;8556;52.218;9.884;2023-06-22T05:18:54;19.00;99.90
16879;DHT22;8556;52.218;9.884;2023-06-22T05:21:26;19.10;99.90
16879;DHT22;8556;52.218;9.884;2023-06-22T05:23:53;19.10;99.90
16879;DHT22;8556;52.218;9.884;2023-06-22T05:26:22;19.10;99.90
16879;DHT22;8556;52.218;9.884;2023-06-22T05:28:50;19.20;99.90
16879;DHT22;8556;52.218;9.884;2023-06-22T05:31:17;19.30;99.90
16879;DHT22;8556;52.218;9.884;2023-06-22T05:33:46;19.30;99.90
16879;DHT22;8556;52.218;9.884;2023-06-22T05:36:14;19.30;99.90
16879;DHT22;8556;52.218;9.884;2023-06-22T05:38:41;19.40;99.90
16879;DHT22;8556;52.218;9.884;2023-06-22T05:41:08;19.40;99.90
16879;DHT22;8556;52.218;9.884;2023-06-22T05:43:35;19.50;99.90
16879;DHT22;8556;52.218;9.884;2023-06-22T05:46:04;19.60;99.90
16879;DHT22;8556;52.218;9.884;2023-06-22T05:48:31;19.60;99.90
16879;DHT22;8556;52.218;9.884;2023-06-22T05:50:58;19.70;99.90
16879;DHT22;8556;52.218;9.884;2023-06-22T05:53:25;19.70;99.90
16879;DHT22;8556;52.218;9.884;2023-06-22T05:55:52;19.80;99.90
16879;DHT22;8556;52.218;9.884;2023-06-22T05:58:19;19.90;99.90
16879;DHT22;8556;52.218;9.884;2023-06-22T06:00:46;19.90;99.90
16879;DHT22;8556;52.218;9.884;2023-06-22T06:03:14;20.00;99.90
16879;DHT22;8556;52.218;9.884;2023-06-22T06:05:43;20.00;99.90
16879;DHT22;8556;52.218;9.884;2023-06-22T06:08:10;19.80;99.90
16879;DHT22;8556;52.218;9.884;2023-06-22T06:10:38;20.10;99.90
16879;DHT22;8556;52.218;9.884;2023-06-22T06:13:05;20.20;99.90
16879;DHT22;8556;52.218;9.884;2023-06-22T06:15:32;20.20;99.90
16879;DHT22;8556;52.218;9.884;2023-06-22T06:17:59;20.30;99.90
16879;DHT22;8556;52.218;9.884;2023-06-22T06:20:28;20.40;99.90
16879;DHT22;8556;52.218;9.884;2023-06-22T06:22:57;20.40;99.90
16879;DHT22;8556;52.218;9.884;2023-06-22T06:25:24;20.40;99.90
16879;DHT22;8556;52.218;9.884;2023-06-22T06:27:52;20.60;99.90
16879;DHT22;8556;52.218;9.884;2023-06-22T06:30:20;20.50;99.90
16879;DHT22;8556;52.218;9.884;2023-06-22T06:32:47;20.50;99.90
16879;DHT22;8556;52.218;9.884;2023-06-22T06:35:14;20.60;99.90
16879;DHT22;8556;52.218;9.884;2023-06-22T06:37:44;20.70;99.90
16879;DHT22;8556;52.218;9.884;2023-06-22T06:40:12;20.90;99.90
16879;DHT22;8556;52.218;9.884;2023-06-22T06:42:41;20.90;99.90
16879;DHT22;8556;52.218;9.884;2023-06-22T06:45:10;20.80;99.90
16879;DHT22;8556;52.218;9.884;2023-06-22T06:47:37;20.90;99.90
16879;DHT22;8556;52.218;9.884;2023-06-22T06:50:05;21.00;99.90
16879;DHT22;8556;52.218;9.884;2023-06-22T06:52:32;21.20;99.90
16879;DHT22;8556;52.218;9.884;2023-06-22T06:55:00;21.30;99.90
16879;DHT22;8556;52.218;9.884;2023-06-22T06:57:30;21.30;99.90
16879;DHT22;8556;52.218;9.884;2023-06-22T06:59:59;21.30;99.90
16879;DHT22;8556;52.218;9.884;2023-06-22T07:02:26;21.40;99.90
16879;DHT22;8556;52.218;9.884;2023-06-22T07:04:54;21.50;99.90
16879;DHT22;8556;52.218;9.884;2023-06-22T07:07:21;21.60;99.90
16879;DHT22;8556;52.218;9.884;2023-06-22T07:09:48;21.70;99.90
16879;DHT22;8556;52.218;9.884;2023-06-22T07:12:16;21.70;99.90
16879;DHT22;8556;52.218;9.884;2023-06-22T07:14:43;21.70;99.90
16879;DHT22;8556;52.218;9.884;2023-06-22T07:17:10;21.90;99.90
16879;DHT22;8556;52.218;9.884;2023-06-22T07:19:37;22.00;99.90
16879;DHT22;8556;52.218;9.884;2023-06-22T07:22:04;21.90;99.90
16879;DHT22;8556;52.218;9.884;2023-06-22T07:24:31;22.10;99.90
16879;DHT22;8556;52.218;9.884;2023-06-22T07:26:59;22.30;99.90
16879;DHT22;8556;52.218;9.884;2023-06-22T07:29:27;22.40;99.90
16879;DHT22;8556;52.218;9.884;2023-06-22T07:31:54;22.40;99.90
16879;DHT22;8556;52.218;9.884;2023-06-22T07:34:21;22.60;99.90
16879;DHT22;8556;52.218;9.884;2023-06-22T07:36:48;22.80;99.90
16879;DHT22;8556;52.218;9.884;2023-06-22T07:39:15;22.70;99.90
16879;DHT22;8556;52.218;9.884;2023-06-22T07:41:42;22.70;99.90
16879;DHT22;8556;52.218;9.884;2023-06-22T07:44:09;22.60;99.90
16879;DHT22;8556;52.218;9.884;2023-06-22T07:46:37;22.40;99.90
16879;DHT22;8556;52.218;9.884;2023-06-22T07:49:04;22.30;99.90
16879;DHT22;8556;52.218;9.884;2023-06-22T07:51:31;22.10;99.90
16879;DHT22;8556;52.218;9.884;2023-06-22T07:53:57;22.30;99.90
16879;DHT22;8556;52.218;9.884;2023-06-22T07:56:24;22.40;99.90
16879;DHT22;8556;52.218;9.884;2023-06-22T07:58:51;22.40;99.90
16879;DHT22;8556;52.218;9.884;2023-06-22T08:01:18;22.40;99.90
16879;DHT22;8556;52.218;9.884;2023-06-22T08:03:48;22.20;99.90
16879;DHT22;8556;52.218;9.884;2023-06-22T08:06:15;22.30;99.90
16879;DHT22;8556;52.218;9.884;2023-06-22T08:08:42;22.30;99.90
16879;DHT22;8556;52.218;9.884;2023-06-22T08:11:09;22.20;99.90
16879;DHT22;8556;52.218;9.884;2023-06-22T08:13:36;22.30;99.90
16879;DHT22;8556;52.218;9.884;2023-06-22T08:16:03;22.30;99.90
16879;DHT22;8556;52.218;9.884;2023-06-22T08:18:30;22.40;99.90
16879;DHT22;8556;52.218;9.884;2023-06-22T08:20:58;22.40;99.90
16879;DHT22;8556;52.218;9.884;2023-06-22T08:23:25;22.50;99.90
16879;DHT22;8556;52.218;9.884;2023-06-22T08:25:52;22.50;99.90
16879;DHT22;8556;52.218;9.884;2023-06-22T08:28:18;22.50;99.90
16879;DHT22;8556;52.218;9.884;2023-06-22T08:30:45;22.60;99.90
16879;DHT22;8556;52.218;9.884;2023-06-22T08:33:12;22.50;99.90
16879;DHT22;8556;52.218;9.884;2023-06-22T08:35:39;22.50;99.90
16879;DHT22;8556;52.218;9.884;2023-06-22T08:38:07;22.40;99.90
16879;DHT22;8556;52.218;9.884;2023-06-22T08:40:34;22.40;99.90
16879;DHT22;8556;52.218;9.884;2023-06-22T08:43:01;22.40;99.90
16879;DHT22;8556;52.218;9.884;2023-06-22T08:45:27;22.50;99.90
16879;DHT22;8556;52.218;9.884;2023-06-22T08:47:54;22.40;99.90
16879;DHT22;8556;52.218;9.884;2023-06-22T08:50:21;22.40;99.90
16879;DHT22;8556;52.218;9.884;2023-06-22T08:52:48;22.40;99.90
16879;DHT22;8556;52.218;9.884;2023-06-22T08:55:17;22.30;99.90
16879;DHT22;8556;52.218;9.884;2023-06-22T08:57:43;22.30;99.90
16879;DHT22;8556;52.218;9.884;2023-06-22T09:00:11;22.40;99.90
16879;DHT22;8556;52.218;9.884;2023-06-22T09:02:41;22.40;99.90
16879;DHT22;8556;52.218;9.884;2023-06-22T09:05:09;22.40;99.90
16879;DHT22;8556;52.218;9.884;2023-06-22T09:07:36;22.40;99.90
16879;DHT22;8556;52.218;9.884;2023-06-22T09:10:03;22.40;99.90
16879;DHT22;8556;52.218;9.884;2023-06-22T09:12:32;22.50;99.90
16879;DHT22;8556;52.218;9.884;2023-06-22T09:15:00;22.40;99.90
16879;DHT22;8556;52.218;9.884;2023-06-22T09:17:28;22.60;99.90
16879;DHT22;8556;52.218;9.884;2023-06-22T09:19:55;22.80;99.90
16879;DHT22;8556;52.218;9.884;2023-06-22T09:22:22;22.80;99.90
16879;DHT22;8556;52.218;9.884;2023-06-22T09:24:54;22.90;99.90
16879;DHT22;8556;52.218;9.884;2023-06-22T09:27:21;23.00;99.90
16879;DHT22;8556;52.218;9.884;2023-06-22T09:29:49;22.90;99.90
16879;DHT22;8556;52.218;9.884;2023-06-22T09:32:16;23.10;99.90
16879;DHT22;8556;52.218;9.884;2023-06-22T09:34:43;23.20;99.90
16879;DHT22;8556;52.218;9.884;2023-06-22T09:37:10;23.20;99.90
16879;DHT22;8556;52.218;9.884;2023-06-22T09:39:36;23.00;99.90
16879;DHT22;8556;52.218;9.884;2023-06-22T09:42:04;23.00;99.90
16879;DHT22;8556;52.218;9.884;2023-06-22T09:44:31;23.20;99.90
16879;DHT22;8556;52.218;9.884;2023-06-22T09:47:00;23.30;99.90
16879;DHT22;8556;52.218;9.884;2023-06-22T09:49:27;23.40;99.90
16879;DHT22;8556;52.218;9.884;2023-06-22T09:51:53;23.60;99.90
16879;DHT22;8556;52.218;9.884;2023-06-22T09:54:20;23.50;99.90
16879;DHT22;8556;52.218;9.884;2023-06-22T09:56:47;23.60;99.90
16879;DHT22;8556;52.218;9.884;2023-06-22T09:59:14;24.00;99.90
16879;DHT22;8556;52.218;9.884;2023-06-22T10:01:41;24.00;99.90
16879;DHT22;8556;52.218;9.884;2023-06-22T10:04:09;23.80;99.90
16879;DHT22;8556;52.218;9.884;2023-06-22T10:06:36;23.90;99.90
16879;DHT22;8556;52.218;9.884;2023-06-22T10:09:06;24.00;99.90
16879;DHT22;8556;52.218;9.884;2023-06-22T10:11:34;24.00;99.90
16879;DHT22;8556;52.218;9.884;2023-06-22T10:14:01;24.10;99.90
16879;DHT22;8556;52.218;9.884;2023-06-22T10:16:31;24.20;99.90
16879;DHT22;8556;52.218;9.884;2023-06-22T10:18:58;24.00;99.90
16879;DHT22;8556;52.218;9.884;2023-06-22T10:21:26;24.10;99.90
16879;DHT22;8556;52.218;9.884;2023-06-22T10:23:54;24.00;99.90
16879;DHT22;8556;52.218;9.884;2023-06-22T10:26:21;24.20;99.90
16879;DHT22;8556;52.218;9.884;2023-06-22T10:28:48;24.20;99.90
16879;DHT22;8556;52.218;9.884;2023-06-22T10:31:15;24.30;99.90
16879;DHT22;8556;52.218;9.884;2023-06-22T10:33:42;24.40;99.90
16879;DHT22;8556;52.218;9.884;2023-06-22T10:36:09;24.30;99.90
16879;DHT22;8556;52.218;9.884;2023-06-22T10:38:38;24.30;99.90
16879;DHT22;8556;52.218;9.884;2023-06-22T10:41:04;24.30;99.90
16879;DHT22;8556;52.218;9.884;2023-06-22T10:43:31;24.30;99.90
16879;DHT22;8556;52.218;9.884;2023-06-22T10:45:58;24.20;99.90
16879;DHT22;8556;52.218;9.884;2023-06-22T10:48:25;24.40;99.90
16879;DHT22;8556;52.218;9.884;2023-06-22T10:50:52;24.40;99.90
16879;DHT22;8556;52.218;9.884;2023-06-22T10:53:20;24.50;99.90
16879;DHT22;8556;52.218;9.884;2023-06-22T10:55:48;24.40;99.90
16879;DHT22;8556;52.218;9.884;2023-06-22T10:58:17;24.50;99.90
16879;DHT22;8556;52.218;9.884;2023-06-22T11:00:44;24.50;99.90
16879;DHT22;8556;52.218;9.884;2023-06-22T11:03:11;24.40;99.90
16879;DHT22;8556;52.218;9.884;2023-06-22T11:05:39;24.40;99.90
16879;DHT22;8556;52.218;9.884;2023-06-22T11:08:07;24.60;99.90
16879;DHT22;8556;52.218;9.884;2023-06-22T11:10:34;24.70;99.90
16879;DHT22;8556;52.218;9.884;2023-06-22T11:13:02;24.80;99.90
16879;DHT22;8556;52.218;9.884;2023-06-22T11:15:29;25.20;99.90
16879;DHT22;8556;52.218;9.884;2023-06-22T11:17:56;25.30;99.90
16879;DHT22;8556;52.218;9.884;2023-06-22T11:20:23;26.00;99.90
16879;DHT22;8556;52.218;9.884;2023-06-22T11:22:50;26.40;99.90
16879;DHT22;8556;52.218;9.884;2023-06-22T11:25:17;26.60;99.90
16879;DHT22;8556;52.218;9.884;2023-06-22T11:27:43;26.90;99.90
16879;DHT22;8556;52.218;9.884;2023-06-22T11:30:12;26.90;99.90
16879;DHT22;8556;52.218;9.884;2023-06-22T11:32:39;26.90;99.90
16879;DHT22;8556;52.218;9.884;2023-06-22T11:35:06;26.90;99.90
16879;DHT22;8556;52.218;9.884;2023-06-22T11:37:33;26.90;99.90
16879;DHT22;8556;52.218;9.884;2023-06-22T11:40:00;27.30;99.90
16879;DHT22;8556;52.218;9.884;2023-06-22T11:42:28;27.10;99.90
16879;DHT22;8556;52.218;9.884;2023-06-22T11:44:55;26.80;99.90
16879;DHT22;8556;52.218;9.884;2023-06-22T11:47:23;26.80;99.90
16879;DHT22;8556;52.218;9.884;2023-06-22T11:49:50;27.00;99.90
16879;DHT22;8556;52.218;9.884;2023-06-22T11:52:16;26.90;99.90
16879;DHT22;8556;52.218;9.884;2023-06-22T11:54:44;27.00;99.90
16879;DHT22;8556;52.218;9.884;2023-06-22T11:57:12;26.90;99.90
16879;DHT22;8556;52.218;9.884;2023-06-22T11:59:39;27.00;99.90
16879;DHT22;8556;52.218;9.884;2023-06-22T12:02:06;27.40;99.90
16879;DHT22;8556;52.218;9.884;2023-06-22T12:04:35;27.80;99.90
16879;DHT22;8556;52.218;9.884;2023-06-22T12:07:03;28.10;99.90
16879;DHT22;8556;52.218;9.884;2023-06-22T12:09:31;27.40;99.90
16879;DHT22;8556;52.218;9.884;2023-06-22T12:12:08;27.30;99.90
16879;DHT22;8556;52.218;9.884;2023-06-22T12:14:35;27.50;99.90
16879;DHT22;8556;52.218;9.884;2023-06-22T12:17:02;27.60;99.90
16879;DHT22;8556;52.218;9.884;2023-06-22T12:19:29;27.60;99.90
16879;DHT22;8556;52.218;9.884;2023-06-22T12:21:57;27.80;99.90
16879;DHT22;8556;52.218;9.884;2023-06-22T12:24:24;27.90;99.90
16879;DHT22;8556;52.218;9.884;2023-06-22T12:26:51;28.20;99.90
16879;DHT22;8556;52.218;9.884;2023-06-22T12:29:17;28.20;99.90
16879;DHT22;8556;52.218;9.884;2023-06-22T12:31:44;28.20;99.90
16879;DHT22;8556;52.218;9.884;2023-06-22T12:34:11;27.50;99.90
16879;DHT22;8556;52.218;9.884;2023-06-22T12:36:38;27.50;99.90
16879;DHT22;8556;52.218;9.884;2023-06-22T12:39:06;27.10;99.90
16879;DHT22;8556;52.218;9.884;2023-06-22T12:41:33;27.10;99.90
16879;DHT22;8556;52.218;9.884;2023-06-22T12:43:59;27.20;99.90
16879;DHT22;8556;52.218;9.884;2023-06-22T12:46:26;27.10;99.90
16879;DHT22;8556;52.218;9.884;2023-06-22T12:48:53;26.90;99.90
16879;DHT22;8556;52.218;9.884;2023-06-22T12:51:21;27.00;99.90
16879;DHT22;8556;52.218;9.884;2023-06-22T12:53:48;27.30;99.90
16879;DHT22;8556;52.218;9.884;2023-06-22T12:56:16;27.30;99.90
16879;DHT22;8556;52.218;9.884;2023-06-22T12:58:43;27.60;99.90
16879;DHT22;8556;52.218;9.884;2023-06-22T13:01:10;27.80;99.90
16879;DHT22;8556;52.218;9.884;2023-06-22T13:03:37;27.70;99.90
16879;DHT22;8556;52.218;9.884;2023-06-22T13:06:04;27.90;99.90
16879;DHT22;8556;52.218;9.884;2023-06-22T13:08:31;27.70;99.90
16879;DHT22;8556;52.218;9.884;2023-06-22T13:10:58;27.70;99.90
16879;DHT22;8556;52.218;9.884;2023-06-22T13:13:26;27.50;99.90
16879;DHT22;8556;52.218;9.884;2023-06-22T13:15:54;27.50;99.90
16879;DHT22;8556;52.218;9.884;2023-06-22T13:18:20;27.40;99.90
16879;DHT22;8556;52.218;9.884;2023-06-22T13:20:47;27.20;99.90
16879;DHT22;8556;52.218;9.884;2023-06-22T13:23:15;27.20;99.90
16879;DHT22;8556;52.218;9.884;2023-06-22T13:25:42;27.10;99.90
16879;DHT22;8556;52.218;9.884;2023-06-22T13:28:09;27.00;99.90
16879;DHT22;8556;52.218;9.884;2023-06-22T13:30:37;26.90;99.90
16879;DHT22;8556;52.218;9.884;2023-06-22T13:33:04;26.90;99.90
16879;DHT22;8556;52.218;9.884;2023-06-22T13:35:31;26.80;99.90
16879;DHT22;8556;52.218;9.884;2023-06-22T13:37:58;26.80;99.90
16879;DHT22;8556;52.218;9.884;2023-06-22T13:40:25;26.60;99.90
16879;DHT22;8556;52.218;9.884;2023-06-22T13:42:51;26.50;99.90
16879;DHT22;8556;52.218;9.884;2023-06-22T13:45:18;26.50;99.90
16879;DHT22;8556;52.218;9.884;2023-06-22T13:47:47;26.40;99.90
16879;DHT22;8556;52.218;9.884;2023-06-22T13:50:14;26.40;99.90
16879;DHT22;8556;52.218;9.884;2023-06-22T13:52:41;26.30;99.90
16879;DHT22;8556;52.218;9.884;2023-06-22T13:55:08;26.10;99.90
16879;DHT22;8556;52.218;9.884;2023-06-22T13:57:35;25.80;99.90
16879;DHT22;8556;52.218;9.884;2023-06-22T14:00:03;25.60;99.90
16879;DHT22;8556;52.218;9.884;2023-06-22T14:02:31;25.30;99.90
16879;DHT22;8556;52.218;9.884;2023-06-22T14:04:59;24.80;99.90
16879;DHT22;8556;52.218;9.884;2023-06-22T14:07:27;24.50;99.90
16879;DHT22;8556;52.218;9.884;2023-06-22T14:09:54;24.50;99.90
16879;DHT22;8556;52.218;9.884;2023-06-22T14:12:21;24.50;99.90
16879;DHT22;8556;52.218;9.884;2023-06-22T14:14:48;24.40;99.90
16879;DHT22;8556;52.218;9.884;2023-06-22T14:17:15;24.40;99.90
16879;DHT22;8556;52.218;9.884;2023-06-22T14:19:42;24.40;99.90
16879;DHT22;8556;52.218;9.884;2023-06-22T14:22:10;24.50;99.90
16879;DHT22;8556;52.218;9.884;2023-06-22T14:24:37;24.50;99.90
16879;DHT22;8556;52.218;9.884;2023-06-22T14:27:05;24.60;99.90
16879;DHT22;8556;52.218;9.884;2023-06-22T14:29:34;24.70;99.90
16879;DHT22;8556;52.218;9.884;2023-06-22T14:32:01;24.90;99.90
16879;DHT22;8556;52.218;9.884;2023-06-22T14:34:28;25.00;99.90
16879;DHT22;8556;52.218;9.884;2023-06-22T14:36:54;25.00;99.90
16879;DHT22;8556;52.218;9.884;2023-06-22T14:39:23;25.10;99.90
16879;DHT22;8556;52.218;9.884;2023-06-22T14:41:53;25.10;99.90
16879;DHT22;8556;52.218;9.884;2023-06-22T14:44:20;25.10;99.90
16879;DHT22;8556;52.218;9.884;2023-06-22T14:46:46;25.10;99.90
16879;DHT22;8556;52.218;9.884;2023-06-22T14:49:13;25.00;99.90
16879;DHT22;8556;52.218;9.884;2023-06-22T14:51:40;24.80;99.90
16879;DHT22;8556;52.218;9.884;2023-06-22T14:54:07;24.80;99.90
16879;DHT22;8556;52.218;9.884;2023-06-22T14:56:35;24.70;99.90
16879;DHT22;8556;52.218;9.884;2023-06-22T14:59:02;24.60;99.90
16879;DHT22;8556;52.218;9.884;2023-06-22T15:01:29;24.60;99.90
16879;DHT22;8556;52.218;9.884;2023-06-22T15:03:56;24.50;99.90
16879;DHT22;8556;52.218;9.884;2023-06-22T15:06:23;24.40;99.90
16879;DHT22;8556;52.218;9.884;2023-06-22T15:08:49;24.30;99.90
16879;DHT22;8556;52.218;9.884;2023-06-22T15:11:16;24.30;99.90
16879;DHT22;8556;52.218;9.884;2023-06-22T15:13:45;24.20;99.90
16879;DHT22;8556;52.218;9.884;2023-06-22T15:16:11;24.10;99.90
16879;DHT22;8556;52.218;9.884;2023-06-22T15:18:38;24.10;99.90
16879;DHT22;8556;52.218;9.884;2023-06-22T15:21:07;24.10;99.90
16879;DHT22;8556;52.218;9.884;2023-06-22T15:23:34;24.10;99.90
16879;DHT22;8556;52.218;9.884;2023-06-22T15:26:02;24.20;99.90
16879;DHT22;8556;52.218;9.884;2023-06-22T15:28:30;24.30;99.90
16879;DHT22;8556;52.218;9.884;2023-06-22T15:30:59;24.20;99.90
16879;DHT22;8556;52.218;9.884;2023-06-22T15:33:26;24.10;99.90
16879;DHT22;8556;52.218;9.884;2023-06-22T15:35:52;23.60;99.90
16879;DHT22;8556;52.218;9.884;2023-06-22T15:38:21;23.00;99.90
16879;DHT22;8556;52.218;9.884;2023-06-22T15:40:48;21.70;99.90
16879;DHT22;8556;52.218;9.884;2023-06-22T15:43:14;21.00;99.90
16879;DHT22;8556;52.218;9.884;2023-06-22T15:45:41;20.60;99.90
16879;DHT22;8556;52.218;9.884;2023-06-22T15:48:09;21.30;99.90